createdAt,value
2022-09-12T00:05:15.265Z,9.75
2022-09-12T00:13:41.904Z,9.83
2022-09-12T00:22:04.779Z,9.90
2022-09-12T00:30:27.716Z,9.91
2022-09-12T00:38:52.007Z,9.92
2022-09-12T00:47:25.552Z,9.97
2022-09-12T00:55:52.760Z,10.00
2022-09-12T01:04:17.701Z,10.03
2022-09-12T01:12:42.551Z,10.03
2022-09-12T01:21:16.637Z,10.02
2022-09-12T01:30:01.190Z,10.01
2022-09-12T01:38:43.518Z,10.03
2022-09-12T01:47:21.702Z,10.04
2022-09-12T01:55:51.424Z,10.05
2022-09-12T02:04:34.237Z,10.09
2022-09-12T02:13:03.663Z,10.11
2022-09-12T02:21:28.893Z,10.08
2022-09-12T02:29:52.380Z,10.08
2022-09-12T02:38:26.757Z,10.05
2022-09-12T02:46:55.339Z,10.04
2022-09-12T02:55:18.796Z,10.03
2022-09-12T03:04:05.531Z,10.01
2022-09-12T03:13:18.166Z,9.99
2022-09-12T03:22:02.889Z,9.99
2022-09-12T03:30:26.839Z,9.98
2022-09-12T03:38:50.450Z,10.01
2022-09-12T03:47:13.286Z,10.01
2022-09-12T03:55:36.474Z,9.99
2022-09-12T04:03:59.470Z,10.01
2022-09-12T04:12:22.940Z,10.00
2022-09-12T04:20:45.820Z,9.96
2022-09-12T04:29:11.908Z,9.84
2022-09-12T04:37:34.856Z,9.80
2022-09-12T04:46:05.497Z,9.71
2022-09-12T04:54:28.366Z,9.60
2022-09-12T05:02:51.332Z,9.60
2022-09-12T05:11:24.710Z,9.61
2022-09-12T05:19:49.577Z,9.60
2022-09-12T05:28:12.385Z,9.64
2022-09-12T05:36:37.135Z,9.67
2022-09-12T05:45:00.028Z,9.67
2022-09-12T05:53:23.031Z,9.75
2022-09-12T06:01:46.688Z,9.78
2022-09-12T06:10:12.066Z,9.86
2022-09-12T06:18:36.237Z,9.88
2022-09-12T06:26:59.140Z,9.94
2022-09-12T06:35:22.025Z,10.01
2022-09-12T06:43:44.998Z,10.05
2022-09-12T06:52:07.805Z,10.11
2022-09-12T07:00:31.464Z,10.18
2022-09-12T07:08:54.437Z,10.22
2022-09-12T07:17:18.169Z,10.17
2022-09-12T07:25:41.212Z,10.17
2022-09-12T07:34:06.919Z,10.20
2022-09-12T07:42:29.689Z,10.27
2022-09-12T07:51:04.097Z,10.38
2022-09-12T07:59:50.903Z,10.51
2022-09-12T08:08:11.068Z,10.60
2022-09-12T08:16:35.699Z,10.69
2022-09-12T08:24:58.807Z,10.77
2022-09-12T08:33:22.377Z,10.92
2022-09-12T08:41:48.031Z,10.95
2022-09-12T08:50:11.824Z,11.02
2022-09-12T08:58:40.152Z,11.05
2022-09-12T09:07:09.212Z,11.07
2022-09-12T09:16:00.873Z,11.13
2022-09-12T09:24:48.578Z,11.16
2022-09-12T09:33:21.882Z,11.24
2022-09-12T09:41:53.699Z,11.41
2022-09-12T09:50:17.521Z,11.60
2022-09-12T09:58:40.877Z,11.63
2022-09-12T10:07:06.212Z,11.55
2022-09-12T10:15:29.636Z,11.50
2022-09-12T10:24:00.425Z,11.50
2022-09-12T10:32:39.886Z,11.53
2022-09-12T10:41:09.578Z,11.65
2022-09-12T10:49:38.432Z,11.80
2022-09-12T10:58:14.020Z,11.84
2022-09-12T11:06:46.393Z,11.91
2022-09-12T11:15:56.348Z,11.99
2022-09-12T11:24:41.214Z,11.95
2022-09-12T11:33:09.314Z,11.87
2022-09-12T11:41:37.895Z,11.87
2022-09-12T11:50:07.237Z,11.99
2022-09-12T11:58:30.083Z,12.16
2022-09-12T12:07:07.885Z,12.28
2022-09-12T12:15:33.323Z,12.41
2022-09-12T12:24:09.162Z,12.61
2022-09-12T12:32:33.172Z,13.08
2022-09-12T12:41:18.720Z,13.43
2022-09-12T12:49:54.885Z,13.62
2022-09-12T12:58:29.527Z,13.66
2022-09-12T13:07:04.608Z,13.51
2022-09-12T13:15:36.434Z,13.29
2022-09-12T13:24:16.109Z,13.14
2022-09-12T13:32:39.692Z,13.14
2022-09-12T13:41:31.749Z,13.20
2022-09-12T13:49:56.437Z,13.06
2022-09-12T13:58:23.930Z,12.96
2022-09-12T14:06:52.558Z,12.91
2022-09-12T14:15:28.776Z,12.86
2022-09-12T14:23:51.975Z,12.87
2022-09-12T14:32:23.761Z,12.84
2022-09-12T14:41:08.385Z,12.79
2022-09-12T14:49:38.205Z,12.71
2022-09-12T14:58:19.222Z,12.64
2022-09-12T15:06:42.063Z,12.62
2022-09-12T15:15:15.131Z,12.58
2022-09-12T15:23:48.622Z,12.59
2022-09-12T15:32:22.736Z,12.60
2022-09-12T15:40:54.043Z,12.56
2022-09-12T15:49:17.425Z,12.49
2022-09-12T15:57:40.882Z,12.44
2022-09-12T16:06:05.467Z,12.36
2022-09-12T16:14:28.257Z,12.32
2022-09-12T16:22:51.026Z,12.31
2022-09-12T16:31:14.802Z,12.30
2022-09-12T16:39:38.124Z,12.27
2022-09-12T16:48:01.846Z,12.28
2022-09-12T16:56:26.181Z,12.21
2022-09-12T17:04:49.124Z,12.12
2022-09-12T17:13:12.492Z,12.07
2022-09-12T17:21:35.716Z,12.07
2022-09-12T17:29:58.532Z,12.09
2022-09-12T17:38:25.348Z,12.09
2022-09-12T17:46:48.377Z,12.07
2022-09-12T17:55:14.115Z,12.03
2022-09-12T18:03:37.047Z,11.99
2022-09-12T18:12:00.035Z,12.02
2022-09-12T18:20:23.700Z,11.95
2022-09-12T18:28:46.455Z,11.86
2022-09-12T18:37:09.288Z,11.81
2022-09-12T18:45:32.273Z,11.84
2022-09-12T18:53:58.488Z,11.84
2022-09-12T19:02:21.309Z,11.78
2022-09-12T19:10:44.773Z,11.74
2022-09-12T19:19:08.341Z,11.71
2022-09-12T19:27:33.043Z,11.71
2022-09-12T19:35:55.816Z,11.71
2022-09-12T19:44:21.479Z,11.70
2022-09-12T19:52:44.268Z,11.71
2022-09-12T20:01:10.945Z,11.59
2022-09-12T20:09:34.506Z,11.37
2022-09-12T20:17:57.981Z,11.22
2022-09-12T20:26:20.862Z,11.06
2022-09-12T20:34:44.669Z,10.86
2022-09-12T20:43:07.609Z,10.70
2022-09-12T20:51:32.012Z,10.56
2022-09-12T20:59:54.996Z,10.47
2022-09-12T21:08:17.917Z,10.43
2022-09-12T21:16:40.701Z,10.39
2022-09-12T21:25:03.752Z,10.47
2022-09-12T21:33:28.210Z,10.49
2022-09-12T21:41:51.110Z,10.58
2022-09-12T21:50:14.976Z,10.58
2022-09-12T21:58:38.428Z,10.52
2022-09-12T22:07:02.220Z,10.51
2022-09-12T22:15:41.494Z,10.61
2022-09-12T22:24:23.887Z,10.65
2022-09-12T22:32:50.263Z,10.69
2022-09-12T22:41:13.284Z,10.71
2022-09-12T22:49:36.127Z,10.67
2022-09-12T22:57:59.935Z,10.51
2022-09-12T23:06:22.797Z,10.32
2022-09-12T23:14:47.215Z,10.23
2022-09-12T23:23:10.125Z,10.20
2022-09-12T23:31:35.566Z,10.15
2022-09-12T23:39:59.165Z,10.19
2022-09-12T23:48:22.227Z,10.15
2022-09-12T23:56:46.169Z,10.00
